sensor_id;sensor_type;location;lat;lon;timestamp;pressure;altitude;pressure_sealevel;temperature;humidity
11413;BME280;5762;43.256;26.960;2022-09-13T00:01:10;99175.17;;;18.14;100.00
11413;BME280;5762;43.256;26.960;2022-09-13T00:03:40;99176.07;;;17.99;100.00
11413;BME280;5762;43.256;26.960;2022-09-13T00:06:10;99181.55;;;17.89;100.00
11413;BME280;5762;43.256;26.960;2022-09-13T00:11:13;99188.72;;;17.68;100.00
11413;BME280;5762;43.256;26.960;2022-09-13T00:13:42;99191.16;;;17.64;100.00
11413;BME280;5762;43.256;26.960;2022-09-13T00:16:11;99190.48;;;17.51;100.00
11413;BME280;5762;43.256;26.960;2022-09-13T00:18:42;99191.39;;;17.39;100.00
11413;BME280;5762;43.256;26.960;2022-09-13T00:21:14;99199.02;;;17.30;100.00
11413;BME280;5762;43.256;26.960;2022-09-13T00:23:43;99200.22;;;17.23;100.00
11413;BME280;5762;43.256;26.960;2022-09-13T00:26:14;99211.91;;;17.14;100.00
11413;BME280;5762;43.256;26.960;2022-09-13T00:28:42;99210.86;;;17.03;100.00
11413;BME280;5762;43.256;26.960;2022-09-13T00:31:13;99226.95;;;16.98;100.00
11413;BME280;5762;43.256;26.960;2022-09-13T00:33:41;99234.81;;;16.84;100.00
11413;BME280;5762;43.256;26.960;2022-09-13T00:36:10;99243.20;;;16.69;100.00
11413;BME280;5762;43.256;26.960;2022-09-13T00:38:40;99245.77;;;16.56;100.00
11413;BME280;5762;43.256;26.960;2022-09-13T00:41:11;99254.47;;;16.46;100.00
11413;BME280;5762;43.256;26.960;2022-09-13T00:43:44;99254.50;;;16.40;100.00
11413;BME280;5762;43.256;26.960;2022-09-13T00:46:13;99268.17;;;16.34;100.00
11413;BME280;5762;43.256;26.960;2022-09-13T00:48:41;99286.84;;;16.32;100.00
11413;BME280;5762;43.256;26.960;2022-09-13T00:51:11;99292.86;;;16.37;100.00
11413;BME280;5762;43.256;26.960;2022-09-13T00:53:43;99292.94;;;16.47;100.00
11413;BME280;5762;43.256;26.960;2022-09-13T00:56:12;99289.04;;;16.54;100.00
11413;BME280;5762;43.256;26.960;2022-09-13T01:01:12;99287.00;;;16.51;100.00
11413;BME280;5762;43.256;26.960;2022-09-13T01:03:40;99297.14;;;16.51;100.00
11413;BME280;5762;43.256;26.960;2022-09-13T01:06:12;99296.23;;;16.47;100.00
11413;BME280;5762;43.256;26.960;2022-09-13T01:08:41;99295.89;;;16.48;100.00
11413;BME280;5762;43.256;26.960;2022-09-13T01:11:14;99296.02;;;16.46;100.00
11413;BME280;5762;43.256;26.960;2022-09-13T01:13:41;99293.73;;;16.48;100.00
11413;BME280;5762;43.256;26.960;2022-09-13T01:16:11;99293.63;;;16.44;100.00
11413;BME280;5762;43.256;26.960;2022-09-13T01:18:40;99297.48;;;16.49;100.00
11413;BME280;5762;43.256;26.960;2022-09-13T01:38:46;99291.20;;;16.55;100.00
11413;BME280;5762;43.256;26.960;2022-09-13T01:46:13;99279.52;;;16.70;100.00
11413;BME280;5762;43.256;26.960;2022-09-13T01:48:50;99272.38;;;16.65;100.00
11413;BME280;5762;43.256;26.960;2022-09-13T01:51:16;99268.94;;;16.68;100.00
11413;BME280;5762;43.256;26.960;2022-09-13T01:56:11;99257.79;;;16.67;100.00
11413;BME280;5762;43.256;26.960;2022-09-13T01:58:41;99261.54;;;16.69;100.00
11413;BME280;5762;43.256;26.960;2022-09-13T02:06:11;99259.66;;;16.57;100.00
11413;BME280;5762;43.256;26.960;2022-09-13T02:08:41;99260.80;;;16.56;100.00
11413;BME280;5762;43.256;26.960;2022-09-13T02:11:10;99253.17;;;16.56;100.00
11413;BME280;5762;43.256;26.960;2022-09-13T02:16:12;99252.88;;;16.45;100.00
11413;BME280;5762;43.256;26.960;2022-09-13T02:18:40;99258.56;;;16.46;100.00
11413;BME280;5762;43.256;26.960;2022-09-13T02:21:12;99263.34;;;16.49;100.00
11413;BME280;5762;43.256;26.960;2022-09-13T02:23:42;99260.85;;;16.44;100.00
11413;BME280;5762;43.256;26.960;2022-09-13T02:26:11;99260.28;;;16.45;100.00
11413;BME280;5762;43.256;26.960;2022-09-13T02:28:45;99263.38;;;16.37;100.00
11413;BME280;5762;43.256;26.960;2022-09-13T02:31:15;99263.58;;;16.44;100.00
11413;BME280;5762;43.256;26.960;2022-09-13T02:33:46;99261.09;;;16.39;100.00
11413;BME280;5762;43.256;26.960;2022-09-13T02:36:16;99261.89;;;16.39;100.00
11413;BME280;5762;43.256;26.960;2022-09-13T02:38:46;99260.53;;;16.39;100.00
11413;BME280;5762;43.256;26.960;2022-09-13T02:43:45;99259.28;;;16.37;100.00
11413;BME280;5762;43.256;26.960;2022-09-13T02:53:46;99257.15;;;16.30;100.00
11413;BME280;5762;43.256;26.960;2022-09-13T02:56:17;99253.55;;;16.26;100.00
11413;BME280;5762;43.256;26.960;2022-09-13T02:58:44;99258.44;;;16.27;100.00
11413;BME280;5762;43.256;26.960;2022-09-13T03:01:13;99261.31;;;16.18;100.00
11413;BME280;5762;43.256;26.960;2022-09-13T03:03:42;99269.73;;;16.19;100.00
11413;BME280;5762;43.256;26.960;2022-09-13T03:06:12;99270.53;;;16.14;100.00
11413;BME280;5762;43.256;26.960;2022-09-13T03:08:42;99271.59;;;15.97;100.00
11413;BME280;5762;43.256;26.960;2022-09-13T03:11:14;99271.25;;;15.98;100.00
11413;BME280;5762;43.256;26.960;2022-09-13T03:23:44;99274.82;;;15.93;100.00
11413;BME280;5762;43.256;26.960;2022-09-13T03:31:20;99280.41;;;15.78;100.00
11413;BME280;5762;43.256;26.960;2022-09-13T03:33:43;99288.12;;;15.88;100.00
11413;BME280;5762;43.256;26.960;2022-09-13T03:36:13;99293.25;;;15.90;100.00
11413;BME280;5762;43.256;26.960;2022-09-13T03:38:44;99291.53;;;15.91;100.00
11413;BME280;5762;43.256;26.960;2022-09-13T03:41:12;99291.77;;;15.86;100.00
11413;BME280;5762;43.256;26.960;2022-09-13T03:46:14;99296.78;;;15.72;100.00
11413;BME280;5762;43.256;26.960;2022-09-13T03:48:40;99284.97;;;15.62;100.00
11413;BME280;5762;43.256;26.960;2022-09-13T03:51:09;99295.80;;;15.58;100.00
11413;BME280;5762;43.256;26.960;2022-09-13T03:53:42;99294.39;;;15.46;100.00
11413;BME280;5762;43.256;26.960;2022-09-13T03:58:40;99296.09;;;15.38;100.00
11413;BME280;5762;43.256;26.960;2022-09-13T04:01:09;99308.83;;;15.22;100.00
11413;BME280;5762;43.256;26.960;2022-09-13T04:03:39;99305.17;;;15.12;100.00
11413;BME280;5762;43.256;26.960;2022-09-13T04:06:10;99304.50;;;15.15;100.00
11413;BME280;5762;43.256;26.960;2022-09-13T04:08:39;99310.97;;;15.17;100.00
11413;BME280;5762;43.256;26.960;2022-09-13T04:11:09;99306.55;;;15.18;100.00
11413;BME280;5762;43.256;26.960;2022-09-13T04:13:38;99312.58;;;15.24;100.00
11413;BME280;5762;43.256;26.960;2022-09-13T04:16:08;99311.42;;;15.31;100.00
11413;BME280;5762;43.256;26.960;2022-09-13T04:18:37;99313.94;;;15.42;100.00
11413;BME280;5762;43.256;26.960;2022-09-13T04:21:07;99316.44;;;15.47;100.00
11413;BME280;5762;43.256;26.960;2022-09-13T04:23:37;99314.75;;;15.61;100.00
11413;BME280;5762;43.256;26.960;2022-09-13T04:26:08;99313.61;;;15.68;100.00
11413;BME280;5762;43.256;26.960;2022-09-13T04:28:37;99305.20;;;15.79;100.00
11413;BME280;5762;43.256;26.960;2022-09-13T04:31:06;99304.50;;;15.88;100.00
11413;BME280;5762;43.256;26.960;2022-09-13T04:33:35;99296.95;;;15.97;100.00
11413;BME280;5762;43.256;26.960;2022-09-13T04:36:04;99292.28;;;16.04;100.00
11413;BME280;5762;43.256;26.960;2022-09-13T04:38:34;99289.77;;;16.11;100.00
11413;BME280;5762;43.256;26.960;2022-09-13T04:41:03;99295.55;;;16.22;100.00
11413;BME280;5762;43.256;26.960;2022-09-13T04:43:32;99286.96;;;16.29;100.00
11413;BME280;5762;43.256;26.960;2022-09-13T04:48:32;99290.30;;;16.51;100.00
11413;BME280;5762;43.256;26.960;2022-09-13T04:51:03;99292.39;;;16.63;100.00
11413;BME280;5762;43.256;26.960;2022-09-13T04:53:32;99292.91;;;16.53;100.00
11413;BME280;5762;43.256;26.960;2022-09-13T04:56:04;99290.18;;;16.53;100.00
11413;BME280;5762;43.256;26.960;2022-09-13T04:58:33;99299.09;;;16.44;100.00
11413;BME280;5762;43.256;26.960;2022-09-13T05:01:03;99304.86;;;16.55;100.00
11413;BME280;5762;43.256;26.960;2022-09-13T05:03:32;99303.72;;;16.56;100.00
11413;BME280;5762;43.256;26.960;2022-09-13T05:08:31;99309.69;;;16.39;100.00
11413;BME280;5762;43.256;26.960;2022-09-13T05:11:01;99310.94;;;16.42;100.00
11413;BME280;5762;43.256;26.960;2022-09-13T05:13:30;99315.91;;;16.52;100.00
11413;BME280;5762;43.256;26.960;2022-09-13T05:16:02;99319.06;;;16.60;100.00
11413;BME280;5762;43.256;26.960;2022-09-13T05:18:30;99322.00;;;16.67;100.00
11413;BME280;5762;43.256;26.960;2022-09-13T05:21:01;99315.05;;;16.70;100.00
11413;BME280;5762;43.256;26.960;2022-09-13T05:23:29;99313.43;;;16.75;100.00
11413;BME280;5762;43.256;26.960;2022-09-13T05:26:00;99315.37;;;16.96;100.00
11413;BME280;5762;43.256;26.960;2022-09-13T05:28:30;99317.45;;;17.09;100.00
11413;BME280;5762;43.256;26.960;2022-09-13T05:31:00;99311.05;;;17.11;100.00
11413;BME280;5762;43.256;26.960;2022-09-13T05:33:30;99309.17;;;17.21;100.00
11413;BME280;5762;43.256;26.960;2022-09-13T05:36:00;99316.06;;;17.31;100.00
11413;BME280;5762;43.256;26.960;2022-09-13T05:38:28;99310.65;;;17.34;100.00
11413;BME280;5762;43.256;26.960;2022-09-13T05:40:59;99308.22;;;17.39;100.00
11413;BME280;5762;43.256;26.960;2022-09-13T05:43:29;99304.73;;;17.48;100.00
11413;BME280;5762;43.256;26.960;2022-09-13T05:48:28;99291.30;;;17.74;100.00
11413;BME280;5762;43.256;26.960;2022-09-13T05:51:02;99298.03;;;17.87;100.00
11413;BME280;5762;43.256;26.960;2022-09-13T05:53:26;99299.98;;;18.05;100.00
11413;BME280;5762;43.256;26.960;2022-09-13T05:55:55;99290.88;;;18.27;100.00
11413;BME280;5762;43.256;26.960;2022-09-13T05:58:28;99288.83;;;18.43;100.00
11413;BME280;5762;43.256;26.960;2022-09-13T06:00:57;99288.11;;;18.56;100.00
11413;BME280;5762;43.256;26.960;2022-09-13T06:03:27;99282.94;;;18.70;100.00
11413;BME280;5762;43.256;26.960;2022-09-13T06:05:55;99287.29;;;18.84;100.00
11413;BME280;5762;43.256;26.960;2022-09-13T06:08:25;99283.59;;;18.96;100.00
11413;BME280;5762;43.256;26.960;2022-09-13T06:10:55;99276.14;;;19.19;100.00
11413;BME280;5762;43.256;26.960;2022-09-13T06:13:25;99279.49;;;19.32;100.00
11413;BME280;5762;43.256;26.960;2022-09-13T06:18:24;99272.52;;;19.61;100.00
11413;BME280;5762;43.256;26.960;2022-09-13T06:20:57;99271.04;;;19.67;100.00
11413;BME280;5762;43.256;26.960;2022-09-13T06:23:27;99270.37;;;19.77;100.00
11413;BME280;5762;43.256;26.960;2022-09-13T06:28:25;99266.36;;;19.97;100.00
11413;BME280;5762;43.256;26.960;2022-09-13T06:33:25;99264.91;;;20.24;100.00
11413;BME280;5762;43.256;26.960;2022-09-13T06:35:53;99263.08;;;20.18;100.00
11413;BME280;5762;43.256;26.960;2022-09-13T06:43:22;99263.30;;;20.36;100.00
11413;BME280;5762;43.256;26.960;2022-09-13T06:45:51;99262.72;;;20.53;100.00
11413;BME280;5762;43.256;26.960;2022-09-13T06:48:20;99270.92;;;20.66;100.00
11413;BME280;5762;43.256;26.960;2022-09-13T06:50:50;99272.70;;;20.89;100.00
11413;BME280;5762;43.256;26.960;2022-09-13T06:53:19;99270.69;;;21.02;100.00
11413;BME280;5762;43.256;26.960;2022-09-13T06:55:58;99267.63;;;21.15;100.00
11413;BME280;5762;43.256;26.960;2022-09-13T06:58:18;99273.95;;;21.19;100.00
11413;BME280;5762;43.256;26.960;2022-09-13T07:00:50;99265.88;;;21.16;100.00
11413;BME280;5762;43.256;26.960;2022-09-13T07:03:19;99265.25;;;21.10;100.00
11413;BME280;5762;43.256;26.960;2022-09-13T07:05:48;99267.70;;;20.98;100.00
11413;BME280;5762;43.256;26.960;2022-09-13T07:08:17;99270.09;;;20.83;100.00
11413;BME280;5762;43.256;26.960;2022-09-13T07:10:47;99266.77;;;21.03;100.00
11413;BME280;5762;43.256;26.960;2022-09-13T07:13:16;99272.78;;;20.96;100.00
11413;BME280;5762;43.256;26.960;2022-09-13T07:15:46;99271.20;;;20.95;100.00
11413;BME280;5762;43.256;26.960;2022-09-13T07:18:14;99278.72;;;20.81;100.00
11413;BME280;5762;43.256;26.960;2022-09-13T07:20:44;99281.88;;;20.83;100.00
11413;BME280;5762;43.256;26.960;2022-09-13T07:23:14;99286.34;;;20.74;100.00
11413;BME280;5762;43.256;26.960;2022-09-13T07:25:43;99287.33;;;20.96;100.00
11413;BME280;5762;43.256;26.960;2022-09-13T07:28:11;99288.05;;;21.10;100.00
11413;BME280;5762;43.256;26.960;2022-09-13T07:30:40;99291.42;;;21.13;100.00
11413;BME280;5762;43.256;26.960;2022-09-13T07:33:09;99291.39;;;21.10;100.00
11413;BME280;5762;43.256;26.960;2022-09-13T07:35:38;99290.05;;;21.13;100.00
11413;BME280;5762;43.256;26.960;2022-09-13T07:38:10;99287.58;;;21.01;100.00
11413;BME280;5762;43.256;26.960;2022-09-13T07:40:39;99287.09;;;20.92;100.00
11413;BME280;5762;43.256;26.960;2022-09-13T07:43:08;99291.92;;;20.85;100.00
11413;BME280;5762;43.256;26.960;2022-09-13T07:48:08;99292.45;;;20.98;100.00
11413;BME280;5762;43.256;26.960;2022-09-13T07:50:37;99292.45;;;20.98;100.00
11413;BME280;5762;43.256;26.960;2022-09-13T07:53:06;99290.88;;;20.97;100.00
11413;BME280;5762;43.256;26.960;2022-09-13T07:55:35;99284.82;;;21.01;100.00
11413;BME280;5762;43.256;26.960;2022-09-13T07:58:09;99285.64;;;21.25;100.00
11413;BME280;5762;43.256;26.960;2022-09-13T08:00:38;99295.14;;;21.31;100.00
11413;BME280;5762;43.256;26.960;2022-09-13T08:03:07;99298.51;;;21.34;100.00
11413;BME280;5762;43.256;26.960;2022-09-13T08:08:10;99290.72;;;21.44;100.00
11413;BME280;5762;43.256;26.960;2022-09-13T08:10:38;99297.60;;;21.44;100.00
11413;BME280;5762;43.256;26.960;2022-09-13T08:13:07;99297.28;;;21.56;100.00
11413;BME280;5762;43.256;26.960;2022-09-13T08:15:36;99294.43;;;21.69;100.00
11413;BME280;5762;43.256;26.960;2022-09-13T08:18:06;99294.45;;;21.72;100.00
11413;BME280;5762;43.256;26.960;2022-09-13T08:20:35;99290.48;;;21.66;100.00
11413;BME280;5762;43.256;26.960;2022-09-13T08:23:05;99289.79;;;21.80;100.00
11413;BME280;5762;43.256;26.960;2022-09-13T08:25:34;99284.27;;;21.84;100.00
11413;BME280;5762;43.256;26.960;2022-09-13T08:28:06;99281.75;;;21.88;100.00
11413;BME280;5762;43.256;26.960;2022-09-13T08:30:38;99289.41;;;21.82;100.00
11413;BME280;5762;43.256;26.960;2022-09-13T08:35:37;99275.13;;;22.00;100.00
11413;BME280;5762;43.256;26.960;2022-09-13T08:38:06;99276.22;;;22.19;100.00
11413;BME280;5762;43.256;26.960;2022-09-13T08:40:39;99276.66;;;22.28;100.00
11413;BME280;5762;43.256;26.960;2022-09-13T08:45:35;99280.57;;;22.24;95.14
11413;BME280;5762;43.256;26.960;2022-09-13T08:48:09;99276.31;;;22.40;88.65
11413;BME280;5762;43.256;26.960;2022-09-13T08:50:34;99272.20;;;22.48;91.62
11413;BME280;5762;43.256;26.960;2022-09-13T09:05:40;99251.63;;;22.83;75.39
11413;BME280;5762;43.256;26.960;2022-09-13T09:08:08;99246.09;;;22.90;72.57
11413;BME280;5762;43.256;26.960;2022-09-13T09:13:06;99252.22;;;22.83;65.21
11413;BME280;5762;43.256;26.960;2022-09-13T09:20:49;99225.80;;;22.82;66.30
11413;BME280;5762;43.256;26.960;2022-09-13T09:23:04;99228.55;;;22.89;63.72
11413;BME280;5762;43.256;26.960;2022-09-13T09:25:33;99239.41;;;22.84;62.27
11413;BME280;5762;43.256;26.960;2022-09-13T09:28:08;99227.70;;;22.63;68.63
11413;BME280;5762;43.256;26.960;2022-09-13T09:30:35;99223.60;;;22.78;69.87
11413;BME280;5762;43.256;26.960;2022-09-13T09:35:37;99220.07;;;22.88;71.56
11413;BME280;5762;43.256;26.960;2022-09-13T09:40:32;99217.70;;;22.90;66.63
11413;BME280;5762;43.256;26.960;2022-09-13T09:43:11;99224.02;;;22.90;65.69
11413;BME280;5762;43.256;26.960;2022-09-13T09:45:33;99228.36;;;22.95;66.45
11413;BME280;5762;43.256;26.960;2022-09-13T09:48:05;99225.41;;;23.12;64.75
11413;BME280;5762;43.256;26.960;2022-09-13T09:50:37;99229.36;;;23.21;66.32
11413;BME280;5762;43.256;26.960;2022-09-13T09:55:39;99229.94;;;23.03;65.17
11413;BME280;5762;43.256;26.960;2022-09-13T09:58:07;99222.45;;;22.96;66.11
11413;BME280;5762;43.256;26.960;2022-09-13T10:00:37;99221.28;;;23.15;67.05
11413;BME280;5762;43.256;26.960;2022-09-13T10:03:07;99222.03;;;23.33;67.41
11413;BME280;5762;43.256;26.960;2022-09-13T10:05:36;99220.86;;;23.56;66.63
11413;BME280;5762;43.256;26.960;2022-09-13T10:08:05;99219.59;;;23.82;64.09
11413;BME280;5762;43.256;26.960;2022-09-13T10:13:06;99214.28;;;23.79;64.09
11413;BME280;5762;43.256;26.960;2022-09-13T10:15:35;99212.48;;;23.84;64.47
11413;BME280;5762;43.256;26.960;2022-09-13T10:18:05;99211.83;;;23.95;61.59
11413;BME280;5762;43.256;26.960;2022-09-13T10:20:33;99201.54;;;24.03;62.84
11413;BME280;5762;43.256;26.960;2022-09-13T10:25:32;99201.56;;;24.43;63.41
11413;BME280;5762;43.256;26.960;2022-09-13T10:28:03;99207.66;;;24.76;61.91
11413;BME280;5762;43.256;26.960;2022-09-13T10:33:03;99206.54;;;24.66;60.35
11413;BME280;5762;43.256;26.960;2022-09-13T10:35:33;99201.94;;;24.75;62.85
11413;BME280;5762;43.256;26.960;2022-09-13T10:38:03;99197.78;;;24.49;62.27
11413;BME280;5762;43.256;26.960;2022-09-13T10:40:33;99204.92;;;23.95;65.08
11413;BME280;5762;43.256;26.960;2022-09-13T10:43:03;99203.84;;;23.68;66.05
11413;BME280;5762;43.256;26.960;2022-09-13T10:45:32;99206.65;;;23.32;66.69
11413;BME280;5762;43.256;26.960;2022-09-13T10:50:31;99199.16;;;22.76;71.12
11413;BME280;5762;43.256;26.960;2022-09-13T10:53:02;99200.72;;;22.66;72.55
11413;BME280;5762;43.256;26.960;2022-09-13T10:55:32;99207.20;;;22.47;72.70
11413;BME280;5762;43.256;26.960;2022-09-13T11:05:29;99197.38;;;22.70;72.50
11413;BME280;5762;43.256;26.960;2022-09-13T11:08:04;99200.72;;;22.52;73.77
11413;BME280;5762;43.256;26.960;2022-09-13T11:30:30;99188.30;;;23.34;69.07
11413;BME280;5762;43.256;26.960;2022-09-13T11:45:28;99189.35;;;22.86;68.57
11413;BME280;5762;43.256;26.960;2022-09-13T11:48:01;99182.81;;;22.77;67.83
11413;BME280;5762;43.256;26.960;2022-09-13T11:57:58;99180.09;;;22.84;68.41
11413;BME280;5762;43.256;26.960;2022-09-13T12:03:00;99179.67;;;23.11;67.20
11413;BME280;5762;43.256;26.960;2022-09-13T12:05:27;99186.73;;;23.29;63.68
11413;BME280;5762;43.256;26.960;2022-09-13T12:07:58;99180.62;;;23.30;63.45
11413;BME280;5762;43.256;26.960;2022-09-13T12:10:28;99180.20;;;23.49;63.34
11413;BME280;5762;43.256;26.960;2022-09-13T12:12:55;99179.02;;;23.43;63.50
11413;BME280;5762;43.256;26.960;2022-09-13T12:15:35;99178.43;;;23.44;64.63
11413;BME280;5762;43.256;26.960;2022-09-13T12:17:57;99179.83;;;23.29;63.71
11413;BME280;5762;43.256;26.960;2022-09-13T12:22:57;99172.38;;;23.12;65.27
11413;BME280;5762;43.256;26.960;2022-09-13T12:25:33;99181.63;;;22.89;66.77
11413;BME280;5762;43.256;26.960;2022-09-13T12:28:05;99184.03;;;22.87;67.14
11413;BME280;5762;43.256;26.960;2022-09-13T12:30:50;99181.84;;;23.18;65.81
11413;BME280;5762;43.256;26.960;2022-09-13T12:33:16;99172.83;;;23.76;64.27
11413;BME280;5762;43.256;26.960;2022-09-13T13:00:58;99147.87;;;25.11;54.10
11413;BME280;5762;43.256;26.960;2022-09-13T13:03:20;99161.15;;;25.08;53.82
11413;BME280;5762;43.256;26.960;2022-09-13T13:05:50;99158.03;;;25.02;53.85
11413;BME280;5762;43.256;26.960;2022-09-13T13:13:20;99149.36;;;25.76;52.48
11413;BME280;5762;43.256;26.960;2022-09-13T13:21:20;99148.84;;;25.31;53.79
11413;BME280;5762;43.256;26.960;2022-09-13T13:23:38;99159.89;;;25.16;54.78
11413;BME280;5762;43.256;26.960;2022-09-13T13:31:07;99163.98;;;25.61;53.55
11413;BME280;5762;43.256;26.960;2022-09-13T13:38:39;99162.30;;;26.16;51.93
11413;BME280;5762;43.256;26.960;2022-09-13T13:41:35;99172.22;;;25.68;52.56
11413;BME280;5762;43.256;26.960;2022-09-13T13:43:37;99165.66;;;24.88;53.35
11413;BME280;5762;43.256;26.960;2022-09-13T13:48:37;99160.22;;;24.15;56.08
11413;BME280;5762;43.256;26.960;2022-09-13T13:53:36;99162.59;;;24.13;56.99
11413;BME280;5762;43.256;26.960;2022-09-13T13:56:12;99159.00;;;24.56;56.58
11413;BME280;5762;43.256;26.960;2022-09-13T13:58:41;99169.55;;;24.97;54.78
11413;BME280;5762;43.256;26.960;2022-09-13T14:01:05;99170.28;;;25.27;53.05
11413;BME280;5762;43.256;26.960;2022-09-13T14:13:38;99178.20;;;24.51;51.84
11413;BME280;5762;43.256;26.960;2022-09-13T14:21:03;99175.41;;;24.55;52.43
11413;BME280;5762;43.256;26.960;2022-09-13T14:23:32;99177.03;;;24.75;52.69
11413;BME280;5762;43.256;26.960;2022-09-13T14:26:01;99178.31;;;24.89;51.70
11413;BME280;5762;43.256;26.960;2022-09-13T14:28:31;99183.02;;;24.66;52.05
11413;BME280;5762;43.256;26.960;2022-09-13T14:31:00;99186.95;;;24.68;52.82
11413;BME280;5762;43.256;26.960;2022-09-13T14:33:32;99180.27;;;24.92;51.79
11413;BME280;5762;43.256;26.960;2022-09-13T14:38:31;99177.31;;;24.61;51.52
11413;BME280;5762;43.256;26.960;2022-09-13T14:41:11;99179.05;;;24.41;52.51
11413;BME280;5762;43.256;26.960;2022-09-13T14:43:31;99177.09;;;24.38;53.37
11413;BME280;5762;43.256;26.960;2022-09-13T14:48:35;99181.45;;;24.35;53.38
11413;BME280;5762;43.256;26.960;2022-09-13T14:51:04;99178.37;;;24.19;52.93
11413;BME280;5762;43.256;26.960;2022-09-13T14:53:33;99185.28;;;24.19;53.77
11413;BME280;5762;43.256;26.960;2022-09-13T14:58:37;99190.88;;;24.01;53.99
11413;BME280;5762;43.256;26.960;2022-09-13T15:01:05;99192.42;;;24.13;54.04
11413;BME280;5762;43.256;26.960;2022-09-13T15:03:35;99196.74;;;24.18;55.32
11413;BME280;5762;43.256;26.960;2022-09-13T15:06:04;99195.34;;;24.21;54.72
11413;BME280;5762;43.256;26.960;2022-09-13T15:11:03;99204.09;;;24.05;54.93
11413;BME280;5762;43.256;26.960;2022-09-13T15:13:32;99199.39;;;23.95;54.48
11413;BME280;5762;43.256;26.960;2022-09-13T15:16:22;99198.28;;;23.82;55.67
11413;BME280;5762;43.256;26.960;2022-09-13T15:18:32;99202.63;;;23.80;55.24
11413;BME280;5762;43.256;26.960;2022-09-13T15:23:32;99201.66;;;23.75;55.85
11413;BME280;5762;43.256;26.960;2022-09-13T15:28:32;99195.32;;;23.81;56.10
11413;BME280;5762;43.256;26.960;2022-09-13T15:33:31;99194.06;;;23.96;54.93
11413;BME280;5762;43.256;26.960;2022-09-13T15:38:31;99194.13;;;23.86;55.83
11413;BME280;5762;43.256;26.960;2022-09-13T15:41:11;99195.30;;;23.88;56.01
11413;BME280;5762;43.256;26.960;2022-09-13T15:43:29;99197.48;;;23.85;56.16
11413;BME280;5762;43.256;26.960;2022-09-13T15:45:58;99198.47;;;23.83;56.11
11413;BME280;5762;43.256;26.960;2022-09-13T15:48:29;99203.61;;;23.81;56.60
11413;BME280;5762;43.256;26.960;2022-09-13T15:53:27;99201.67;;;23.67;57.39
11413;BME280;5762;43.256;26.960;2022-09-13T15:55:57;99206.23;;;23.59;58.59
11413;BME280;5762;43.256;26.960;2022-09-13T15:58:25;99209.20;;;23.42;58.89
11413;BME280;5762;43.256;26.960;2022-09-13T16:00:55;99207.63;;;23.41;58.60
11413;BME280;5762;43.256;26.960;2022-09-13T16:03:24;99204.28;;;23.38;59.08
11413;BME280;5762;43.256;26.960;2022-09-13T16:05:53;99203.10;;;23.28;59.57
11413;BME280;5762;43.256;26.960;2022-09-13T16:08:22;99205.11;;;23.10;60.42
11413;BME280;5762;43.256;26.960;2022-09-13T16:10:52;99201.55;;;22.95;61.81
11413;BME280;5762;43.256;26.960;2022-09-13T16:13:21;99201.55;;;22.88;62.38
11413;BME280;5762;43.256;26.960;2022-09-13T16:15:51;99197.38;;;22.74;63.40
11413;BME280;5762;43.256;26.960;2022-09-13T16:18:20;99206.23;;;22.63;64.67
11413;BME280;5762;43.256;26.960;2022-09-13T16:20:49;99202.08;;;22.56;65.09
11413;BME280;5762;43.256;26.960;2022-09-13T16:23:18;99199.93;;;22.52;65.06
11413;BME280;5762;43.256;26.960;2022-09-13T16:25:50;99207.77;;;22.39;63.30
11413;BME280;5762;43.256;26.960;2022-09-13T16:28:18;99207.92;;;22.26;64.19
11413;BME280;5762;43.256;26.960;2022-09-13T16:33:17;99207.70;;;22.21;64.18
11413;BME280;5762;43.256;26.960;2022-09-13T16:35:46;99219.12;;;22.20;65.00
11413;BME280;5762;43.256;26.960;2022-09-13T16:38:15;99209.07;;;22.11;64.93
11413;BME280;5762;43.256;26.960;2022-09-13T16:40:44;98955.92;;;20.38;63.97
11413;BME280;5762;43.256;26.960;2022-09-13T16:43:14;99207.26;;;22.01;62.54
11413;BME280;5762;43.256;26.960;2022-09-13T16:45:43;99207.59;;;21.96;64.75
11413;BME280;5762;43.256;26.960;2022-09-13T16:48:12;99213.27;;;21.90;64.71
11413;BME280;5762;43.256;26.960;2022-09-13T16:50:41;99216.41;;;21.89;64.15
11413;BME280;5762;43.256;26.960;2022-09-13T16:53:10;99220.16;;;21.90;63.65
11413;BME280;5762;43.256;26.960;2022-09-13T16:55:40;99221.54;;;21.90;63.54
11413;BME280;5762;43.256;26.960;2022-09-13T17:00:42;99226.84;;;21.89;63.25
11413;BME280;5762;43.256;26.960;2022-09-13T17:03:09;99225.45;;;21.82;63.72
11413;BME280;5762;43.256;26.960;2022-09-13T17:05:38;99228.00;;;21.85;63.22
11413;BME280;5762;43.256;26.960;2022-09-13T17:08:07;99234.11;;;21.81;62.70
11413;BME280;5762;43.256;26.960;2022-09-13T17:10:36;99230.72;;;21.74;62.74
11413;BME280;5762;43.256;26.960;2022-09-13T17:13:05;99232.28;;;21.71;62.77
11413;BME280;5762;43.256;26.960;2022-09-13T17:15:37;99228.33;;;21.69;62.98
11413;BME280;5762;43.256;26.960;2022-09-13T17:20:32;99246.23;;;21.69;63.11
11413;BME280;5762;43.256;26.960;2022-09-13T17:23:01;99255.41;;;21.60;63.86
11413;BME280;5762;43.256;26.960;2022-09-13T17:25:30;99249.09;;;21.56;64.19
11413;BME280;5762;43.256;26.960;2022-09-13T17:27:59;99248.89;;;21.55;64.17
11413;BME280;5762;43.256;26.960;2022-09-13T17:30:28;99244.73;;;21.51;63.78
11413;BME280;5762;43.256;26.960;2022-09-13T17:32:57;99253.58;;;21.47;64.10
11413;BME280;5762;43.256;26.960;2022-09-13T17:35:27;99253.17;;;21.49;64.21
11413;BME280;5762;43.256;26.960;2022-09-13T17:37:56;99252.58;;;21.49;64.43
11413;BME280;5762;43.256;26.960;2022-09-13T17:40:26;99258.88;;;21.50;65.33
11413;BME280;5762;43.256;26.960;2022-09-13T17:42:55;99259.97;;;21.34;66.45
11413;BME280;5762;43.256;26.960;2022-09-13T17:45:25;99262.86;;;21.28;67.53
11413;BME280;5762;43.256;26.960;2022-09-13T17:47:54;99262.56;;;21.20;69.09
11413;BME280;5762;43.256;26.960;2022-09-13T17:50:24;99263.70;;;21.12;70.74